Coracao de Maria, Brazil
Current Conditions -  °F | °C
As of 6:00 PM on Thursday 23 Oct 2014 (Local Time) from SBSV Reporting Station
Few Clouds Few Clouds  
Wind Chill: 79°   Ceiling: Unl
Heat Index: 81°   Visibility: 6mi
Dew Point: 64°   Wind: 8mph
Humidity: 61%   Direction: 130°SE
Pressure: 30"   Gusts: NA
Location:  12.23°S, 38.75°W
Report Text: SBSV 232100Z 13007KT 9999 FEW017 26/18 Q1016
Loading
Personal Weather Stations






























Interactive Weather Map
Tropical Storm Tracking
New forecast layout! Learn more

10-Day Weather Forecast

Advertisements
Track Severe Weather on mobile